createdAt,value
2022-11-14T00:00:49.563Z,8.10
2022-11-14T00:02:51.123Z,8.09
2022-11-14T00:04:52.616Z,8.06
2022-11-14T00:06:54.156Z,8.06
2022-11-14T00:08:55.659Z,8.03
2022-11-14T00:10:57.106Z,8.01
2022-11-14T00:12:58.564Z,8.01
2022-11-14T00:15:00.128Z,7.95
2022-11-14T00:17:01.947Z,7.93
2022-11-14T00:19:03.672Z,7.92
2022-11-14T00:21:05.157Z,7.88
2022-11-14T00:23:06.569Z,7.85
2022-11-14T00:25:08.490Z,7.84
2022-11-14T00:27:09.920Z,7.86
2022-11-14T00:29:15.752Z,7.87
2022-11-14T00:31:17.354Z,7.87
2022-11-14T00:33:20.875Z,7.86
2022-11-14T00:35:22.542Z,7.83
2022-11-14T00:37:23.992Z,7.80
2022-11-14T00:39:25.493Z,7.77
2022-11-14T00:41:26.909Z,7.75
2022-11-14T00:43:28.403Z,7.76
2022-11-14T00:45:29.827Z,7.78
2022-11-14T00:47:31.276Z,7.79
2022-11-14T00:49:32.775Z,7.78
2022-11-14T00:51:34.192Z,7.80
2022-11-14T00:53:36.114Z,7.78
2022-11-14T00:55:37.796Z,7.74
2022-11-14T00:57:39.245Z,7.72
2022-11-14T00:59:40.686Z,7.72
2022-11-14T01:01:42.165Z,7.71
2022-11-14T01:03:43.597Z,7.69
2022-11-14T01:05:50.706Z,7.72
2022-11-14T01:07:52.165Z,7.71
2022-11-14T01:09:53.612Z,7.71
2022-11-14T01:11:55.130Z,7.72
2022-11-14T01:13:56.567Z,7.72
2022-11-14T01:16:00.828Z,7.71
2022-11-14T01:18:02.271Z,7.70
2022-11-14T01:20:04.564Z,7.68
2022-11-14T01:22:06.734Z,7.70
2022-11-14T01:24:08.402Z,7.69
2022-11-14T01:26:13.283Z,7.71
2022-11-14T01:28:18.320Z,7.69
2022-11-14T01:30:19.743Z,7.66
2022-11-14T01:32:21.201Z,7.64
2022-11-14T01:34:23.497Z,7.64
2022-11-14T01:36:25.058Z,7.65
2022-11-14T01:38:26.734Z,7.68
2022-11-14T01:40:28.954Z,7.68
2022-11-14T01:42:30.451Z,7.68
2022-11-14T01:44:55.012Z,7.68
2022-11-14T01:46:57.068Z,7.69
2022-11-14T01:49:01.186Z,7.69
2022-11-14T01:51:25.888Z,7.66
2022-11-14T01:53:28.175Z,7.65
2022-11-14T01:55:29.619Z,7.65
2022-11-14T01:57:36.313Z,7.64
2022-11-14T01:59:42.500Z,7.64
2022-11-14T02:01:50.196Z,7.62
2022-11-14T02:03:54.543Z,7.56
2022-11-14T02:05:57.015Z,7.53
2022-11-14T02:07:58.596Z,7.52
2022-11-14T02:10:03.529Z,7.53
2022-11-14T02:12:08.577Z,7.53
2022-11-14T02:14:11.180Z,7.54
2022-11-14T02:16:12.683Z,7.54
2022-11-14T02:18:14.143Z,7.53
2022-11-14T02:20:25.079Z,7.50
2022-11-14T02:22:26.577Z,7.47
2022-11-14T02:24:27.996Z,7.47
2022-11-14T02:26:33.031Z,7.45
2022-11-14T02:28:37.360Z,7.47
2022-11-14T02:30:38.825Z,7.48
2022-11-14T02:33:08.872Z,7.48
2022-11-14T02:35:02.029Z,7.46
2022-11-14T02:37:03.644Z,7.45
2022-11-14T02:39:05.094Z,7.43
2022-11-14T02:41:06.537Z,7.42
2022-11-14T02:43:08.078Z,7.41
2022-11-14T02:45:10.645Z,7.40
2022-11-14T02:47:12.069Z,7.39
2022-11-14T02:49:13.540Z,7.39
2022-11-14T02:51:14.953Z,7.39
2022-11-14T02:53:16.416Z,7.40
2022-11-14T02:55:17.863Z,7.41
2022-11-14T02:57:19.288Z,7.41
2022-11-14T02:59:20.767Z,7.39
2022-11-14T03:01:22.282Z,7.36
2022-11-14T03:03:23.815Z,7.36
2022-11-14T03:05:25.881Z,7.37
2022-11-14T03:07:27.511Z,7.38
2022-11-14T03:09:28.952Z,7.36
2022-11-14T03:11:31.199Z,7.32
2022-11-14T03:13:32.761Z,7.29
2022-11-14T03:15:37.529Z,7.26
2022-11-14T03:17:39.029Z,7.25
2022-11-14T03:19:40.472Z,7.26
2022-11-14T03:21:41.896Z,7.28
2022-11-14T03:23:44.196Z,7.28
2022-11-14T03:25:45.603Z,7.28
2022-11-14T03:27:47.033Z,7.28
2022-11-14T03:29:49.305Z,7.29
2022-11-14T03:31:50.735Z,7.28
2022-11-14T03:33:52.161Z,7.27
2022-11-14T03:35:53.950Z,7.23
2022-11-14T03:37:56.822Z,7.23
2022-11-14T03:39:58.385Z,7.27
2022-11-14T03:41:59.840Z,7.29
2022-11-14T03:44:01.335Z,7.32
2022-11-14T03:46:03.474Z,7.29
2022-11-14T03:48:06.508Z,7.29
2022-11-14T03:50:08.224Z,7.28
2022-11-14T03:52:09.660Z,7.27
2022-11-14T03:54:11.091Z,7.22
2022-11-14T03:56:12.529Z,7.19
2022-11-14T03:58:13.991Z,7.16
2022-11-14T04:00:16.173Z,7.15
2022-11-14T04:02:17.641Z,7.14
2022-11-14T04:04:19.122Z,7.14
2022-11-14T04:06:20.704Z,7.18
2022-11-14T04:08:22.196Z,7.22
2022-11-14T04:10:23.716Z,7.22
2022-11-14T04:12:25.365Z,7.22
2022-11-14T04:14:26.807Z,7.19
2022-11-14T04:16:28.251Z,7.16
2022-11-14T04:18:30.168Z,7.15
2022-11-14T04:20:31.973Z,7.12
2022-11-14T04:22:33.419Z,7.09
2022-11-14T04:24:34.880Z,7.05
2022-11-14T04:26:36.328Z,7.01
2022-11-14T04:28:37.758Z,6.99
2022-11-14T04:30:39.815Z,6.99
2022-11-14T04:32:41.252Z,6.97
2022-11-14T04:34:42.667Z,6.96
2022-11-14T04:36:44.417Z,6.96
2022-11-14T04:38:45.856Z,6.93
2022-11-14T04:40:51.903Z,6.96
2022-11-14T04:42:53.382Z,6.93
2022-11-14T04:44:54.902Z,6.95
2022-11-14T04:46:57.159Z,7.00
2022-11-14T04:48:58.600Z,7.00
2022-11-14T04:51:00.038Z,6.96
2022-11-14T04:53:01.452Z,6.93
2022-11-14T04:55:03.363Z,6.91
2022-11-14T04:57:04.810Z,6.93
2022-11-14T04:59:06.270Z,6.95
2022-11-14T05:01:10.139Z,6.98
2022-11-14T05:03:11.642Z,6.96
2022-11-14T05:05:13.266Z,6.90
2022-11-14T05:07:15.478Z,6.89
2022-11-14T05:09:17.031Z,6.88
2022-11-14T05:11:21.482Z,6.89
2022-11-14T05:13:24.649Z,6.88
2022-11-14T05:15:26.335Z,6.88
2022-11-14T05:17:28.341Z,6.89
2022-11-14T05:19:29.742Z,6.89
2022-11-14T05:21:31.217Z,6.88
2022-11-14T05:23:32.974Z,6.88
2022-11-14T05:25:34.409Z,6.83
2022-11-14T05:27:35.860Z,6.81
2022-11-14T05:29:37.320Z,6.83
2022-11-14T05:31:38.749Z,6.86
2022-11-14T05:33:40.222Z,6.88
2022-11-14T05:35:41.639Z,6.87
2022-11-14T05:37:43.078Z,6.84
2022-11-14T05:39:44.499Z,6.83
2022-11-14T05:41:45.959Z,6.86
2022-11-14T05:43:47.621Z,6.88
2022-11-14T05:45:49.099Z,6.92
2022-11-14T05:47:53.979Z,6.90
2022-11-14T05:49:55.393Z,6.89
2022-11-14T05:51:56.813Z,6.89
2022-11-14T05:53:58.280Z,6.90
2022-11-14T05:56:04.802Z,6.91
2022-11-14T05:58:06.308Z,6.89
2022-11-14T06:00:09.280Z,6.90
2022-11-14T06:02:10.810Z,6.88
2022-11-14T06:04:15.410Z,6.88
2022-11-14T06:06:22.421Z,6.89
2022-11-14T06:08:23.846Z,6.86
2022-11-14T06:10:25.453Z,6.84
2022-11-14T06:12:26.924Z,6.82
2022-11-14T06:14:28.340Z,6.82
2022-11-14T06:16:29.946Z,6.82
2022-11-14T06:18:33.772Z,6.82
2022-11-14T06:20:36.250Z,6.83
2022-11-14T06:22:39.819Z,6.86
2022-11-14T06:24:41.245Z,6.87
2022-11-14T06:26:42.853Z,6.89
2022-11-14T06:28:44.308Z,6.89
2022-11-14T06:30:45.716Z,6.89
2022-11-14T06:32:47.205Z,6.87
2022-11-14T06:34:48.986Z,6.83
2022-11-14T06:36:50.464Z,6.81
2022-11-14T06:38:51.928Z,6.82
2022-11-14T06:40:53.488Z,6.81
2022-11-14T06:42:57.773Z,6.79
2022-11-14T06:44:59.233Z,6.77
2022-11-14T06:47:00.757Z,6.76
2022-11-14T06:49:02.227Z,6.75
2022-11-14T06:51:04.999Z,6.76
2022-11-14T06:53:06.448Z,6.75
2022-11-14T06:55:08.139Z,6.77
2022-11-14T06:57:09.575Z,6.75
2022-11-14T06:59:11.576Z,6.74
2022-11-14T07:01:21.907Z,6.75
2022-11-14T07:03:23.455Z,6.75
2022-11-14T07:05:24.893Z,6.75
2022-11-14T07:07:28.632Z,6.73
2022-11-14T07:09:30.326Z,6.73
2022-11-14T07:11:32.108Z,6.71
2022-11-14T07:13:34.627Z,6.73
2022-11-14T07:15:36.036Z,6.70
2022-11-14T07:17:37.462Z,6.70
2022-11-14T07:19:38.966Z,6.71
2022-11-14T07:21:40.504Z,6.72
2022-11-14T07:23:42.335Z,6.73
2022-11-14T07:25:43.854Z,6.74
2022-11-14T07:27:45.284Z,6.70
2022-11-14T07:29:46.699Z,6.65
2022-11-14T07:31:48.149Z,6.64
2022-11-14T07:33:49.580Z,6.63
2022-11-14T07:35:51.958Z,6.62
2022-11-14T07:37:53.390Z,6.65
2022-11-14T07:39:54.835Z,6.61
2022-11-14T07:41:56.295Z,6.58
2022-11-14T07:43:57.854Z,6.56
2022-11-14T07:46:03.228Z,6.57
2022-11-14T07:48:04.901Z,6.55
2022-11-14T07:50:06.810Z,6.53
2022-11-14T07:52:08.323Z,6.53
2022-11-14T07:54:12.011Z,6.57
2022-11-14T07:56:13.816Z,6.59
2022-11-14T07:58:15.299Z,6.57
2022-11-14T08:00:17.057Z,6.58
2022-11-14T08:02:18.523Z,6.59
2022-11-14T08:04:19.923Z,6.61
2022-11-14T08:06:21.706Z,6.66
2022-11-14T08:08:23.128Z,6.69
2022-11-14T08:10:25.536Z,6.71
2022-11-14T08:12:29.043Z,6.70
2022-11-14T08:14:30.519Z,6.71
2022-11-14T08:16:31.984Z,6.71
2022-11-14T08:18:33.431Z,6.73
2022-11-14T08:20:35.057Z,6.71
2022-11-14T08:22:36.502Z,6.73
2022-11-14T08:24:37.932Z,6.72
2022-11-14T08:26:39.573Z,6.72
2022-11-14T08:28:41.020Z,6.74
2022-11-14T08:30:42.540Z,6.78
2022-11-14T08:32:44.025Z,6.81
2022-11-14T08:34:45.681Z,6.83
2022-11-14T08:36:47.119Z,6.84
2022-11-14T08:38:51.397Z,6.86
2022-11-14T08:40:53.141Z,6.87
2022-11-14T08:43:03.716Z,6.87
2022-11-14T08:45:05.790Z,6.84
2022-11-14T08:47:07.287Z,6.86
2022-11-14T08:49:08.711Z,6.87
2022-11-14T08:51:10.199Z,6.86
2022-11-14T08:53:11.654Z,6.83
2022-11-14T08:55:13.217Z,6.83
2022-11-14T08:57:15.399Z,6.87
2022-11-14T08:59:16.920Z,6.82
2022-11-14T09:01:18.349Z,6.82
2022-11-14T09:03:19.982Z,6.80
2022-11-14T09:05:21.848Z,6.82
2022-11-14T09:07:23.347Z,6.84
2022-11-14T09:09:24.864Z,6.86
2022-11-14T09:11:26.329Z,6.89
2022-11-14T09:13:28.084Z,6.87
2022-11-14T09:15:30.397Z,6.85
2022-11-14T09:17:31.876Z,6.84
2022-11-14T09:19:33.291Z,6.87
2022-11-14T09:21:34.743Z,6.90
2022-11-14T09:23:36.869Z,6.93
2022-11-14T09:25:38.586Z,6.94
2022-11-14T09:27:40.025Z,6.92
2022-11-14T09:29:41.473Z,6.97
2022-11-14T09:31:42.899Z,7.00
2022-11-14T09:33:44.326Z,7.03
2022-11-14T09:35:45.790Z,7.05
2022-11-14T09:37:47.234Z,7.06
2022-11-14T09:39:48.669Z,7.10
2022-11-14T09:42:16.820Z,7.17
2022-11-14T09:44:20.683Z,7.14
2022-11-14T09:46:26.071Z,7.13
2022-11-14T09:48:31.228Z,7.12
2022-11-14T09:50:37.024Z,7.14
2022-11-14T09:52:46.259Z,7.14
2022-11-14T09:54:56.449Z,7.16
2022-11-14T09:56:57.895Z,7.17
2022-11-14T09:58:59.384Z,7.19
2022-11-14T10:01:10.679Z,7.19
2022-11-14T10:03:35.015Z,7.23
2022-11-14T10:05:45.896Z,7.27
2022-11-14T10:07:53.452Z,7.28
2022-11-14T10:10:26.054Z,7.32
2022-11-14T10:12:52.088Z,7.34
2022-11-14T10:15:03.480Z,7.34
2022-11-14T10:17:22.510Z,7.34
2022-11-14T10:19:33.036Z,7.36
2022-11-14T10:21:37.529Z,7.39
2022-11-14T10:24:00.762Z,7.43
2022-11-14T10:26:25.743Z,7.47
2022-11-14T10:29:24.443Z,7.46
2022-11-14T10:31:49.147Z,7.47
2022-11-14T10:34:01.690Z,7.47
2022-11-14T10:36:12.143Z,7.46
2022-11-14T10:38:21.412Z,7.43
2022-11-14T10:40:34.254Z,7.40
2022-11-14T10:42:38.830Z,7.42
2022-11-14T10:44:50.994Z,7.42
2022-11-14T10:46:58.812Z,7.38
2022-11-14T10:49:00.912Z,7.33
2022-11-14T10:51:10.796Z,7.34
2022-11-14T10:53:23.805Z,7.31
2022-11-14T10:55:49.707Z,7.31
2022-11-14T10:57:46.690Z,7.32
2022-11-14T10:59:49.039Z,7.25
2022-11-14T11:01:50.472Z,7.18
2022-11-14T11:03:51.976Z,7.23
2022-11-14T11:05:57.461Z,7.29
2022-11-14T11:08:42.504Z,7.36
2022-11-14T11:11:02.127Z,7.46
2022-11-14T11:13:03.670Z,7.56
2022-11-14T11:15:20.410Z,7.57
2022-11-14T11:17:23.098Z,7.55
2022-11-14T11:19:27.142Z,7.61
2022-11-14T11:21:48.486Z,7.62
2022-11-14T11:23:55.771Z,7.61
2022-11-14T11:26:15.794Z,7.60
2022-11-14T11:28:20.122Z,7.59
2022-11-14T11:30:23.360Z,7.58
2022-11-14T11:32:26.245Z,7.60
2022-11-14T11:34:30.999Z,7.65
2022-11-14T11:36:40.791Z,7.70
2022-11-14T11:38:42.388Z,7.73
2022-11-14T11:40:46.575Z,7.75
2022-11-14T11:45:19.555Z,7.80
2022-11-14T11:47:21.795Z,7.83
2022-11-14T11:49:53.362Z,7.88
2022-11-14T11:51:58.128Z,7.92
2022-11-14T11:54:27.292Z,7.94
2022-11-14T11:56:31.849Z,7.96
2022-11-14T11:58:42.834Z,7.96
2022-11-14T12:00:44.327Z,7.95
2022-11-14T12:02:50.040Z,7.95
2022-11-14T12:04:54.491Z,7.91
2022-11-14T12:07:14.742Z,7.91
2022-11-14T12:09:48.734Z,7.90
2022-11-14T12:11:55.627Z,7.90
2022-11-14T12:14:28.191Z,7.92
2022-11-14T12:16:45.627Z,7.94
2022-11-14T12:19:20.861Z,7.95
2022-11-14T12:21:54.236Z,7.97
2022-11-14T12:23:58.868Z,7.96
2022-11-14T12:26:18.726Z,7.96
2022-11-14T12:29:01.885Z,7.98
2022-11-14T12:31:10.963Z,8.03
2022-11-14T12:33:22.003Z,8.05
2022-11-14T12:35:26.534Z,8.07
2022-11-14T12:37:38.258Z,8.09
2022-11-14T12:39:39.784Z,8.12
2022-11-14T12:41:42.073Z,8.10
2022-11-14T12:43:44.216Z,8.05
2022-11-14T12:45:51.932Z,8.03
2022-11-14T12:48:29.125Z,8.00
2022-11-14T12:50:42.047Z,8.02
2022-11-14T12:52:46.300Z,8.04
2022-11-14T12:54:49.175Z,8.04
2022-11-14T12:56:59.607Z,8.08
2022-11-14T12:59:22.326Z,8.06
2022-11-14T13:01:36.777Z,8.01
2022-11-14T13:03:50.290Z,8.00
2022-11-14T13:06:03.758Z,8.02
2022-11-14T13:08:24.276Z,8.06
2022-11-14T13:10:31.985Z,8.09
2022-11-14T13:12:53.272Z,8.09
2022-11-14T13:15:16.064Z,8.10
2022-11-14T13:17:35.934Z,8.13
2022-11-14T13:20:05.445Z,8.22
2022-11-14T13:22:13.024Z,8.25
2022-11-14T13:24:19.086Z,8.27
2022-11-14T13:26:20.447Z,8.26
2022-11-14T13:28:37.342Z,8.27
2022-11-14T13:31:15.869Z,8.29
2022-11-14T13:33:36.064Z,8.24
2022-11-14T13:35:44.713Z,8.24
2022-11-14T13:38:10.156Z,8.25
2022-11-14T13:40:28.455Z,8.28
2022-11-14T13:42:59.289Z,8.29
2022-11-14T13:45:19.399Z,8.30
2022-11-14T13:47:51.847Z,8.31
2022-11-14T13:50:09.157Z,8.30
2022-11-14T13:52:12.918Z,8.28
2022-11-14T13:54:18.607Z,8.26
2022-11-14T13:56:38.290Z,8.27
2022-11-14T13:59:21.409Z,8.22
2022-11-14T14:01:31.521Z,8.22
2022-11-14T14:03:48.257Z,8.20
2022-11-14T14:06:20.100Z,8.19
2022-11-14T14:08:34.211Z,8.20
2022-11-14T14:10:42.668Z,8.21
2022-11-14T14:12:44.049Z,8.20
2022-11-14T14:15:04.544Z,8.20
2022-11-14T14:17:20.504Z,8.20
2022-11-14T14:20:01.539Z,8.21
2022-11-14T14:22:20.306Z,8.22
2022-11-14T14:24:40.094Z,8.18
2022-11-14T14:26:59.326Z,8.19
2022-11-14T14:29:18.509Z,8.19
2022-11-14T14:31:20.664Z,8.16
2022-11-14T14:33:22.268Z,8.16
2022-11-14T14:35:28.179Z,8.15
2022-11-14T14:37:29.814Z,8.14
2022-11-14T14:39:31.274Z,8.10
2022-11-14T14:41:33.337Z,8.08
2022-11-14T14:43:35.140Z,8.07
2022-11-14T14:45:54.699Z,8.05
2022-11-14T14:48:21.803Z,8.04
2022-11-14T14:50:26.898Z,8.00
2022-11-14T14:52:29.735Z,7.99
2022-11-14T14:54:31.258Z,7.97
2022-11-14T14:56:32.881Z,7.93
2022-11-14T14:58:35.513Z,7.93
2022-11-14T15:00:37.321Z,7.91
2022-11-14T15:02:38.798Z,7.87
2022-11-14T15:04:40.972Z,7.87
2022-11-14T15:06:46.423Z,7.87
2022-11-14T15:08:49.062Z,7.86
2022-11-14T15:10:51.449Z,7.84
2022-11-14T15:12:53.612Z,7.80
2022-11-14T15:14:56.582Z,7.78
2022-11-14T15:16:59.340Z,7.78
2022-11-14T15:19:00.989Z,7.77
2022-11-14T15:21:22.969Z,7.74
2022-11-14T15:23:24.439Z,7.70
2022-11-14T15:25:26.006Z,7.69
2022-11-14T15:27:27.458Z,7.68
2022-11-14T15:29:31.559Z,7.68
2022-11-14T15:31:35.410Z,7.66
2022-11-14T15:33:36.988Z,7.64
2022-11-14T15:35:40.038Z,7.61
2022-11-14T15:38:15.648Z,7.57
2022-11-14T15:40:22.124Z,7.54
2022-11-14T15:42:23.512Z,7.52
2022-11-14T15:44:31.857Z,7.51
2022-11-14T15:46:33.247Z,7.50
2022-11-14T15:48:34.740Z,7.47
2022-11-14T15:50:36.259Z,7.47
2022-11-14T15:52:46.792Z,7.45
2022-11-14T15:54:48.290Z,7.42
2022-11-14T15:56:50.567Z,7.42
2022-11-14T15:58:52.347Z,7.40
2022-11-14T16:00:55.043Z,7.39
2022-11-14T16:02:57.669Z,7.37
2022-11-14T16:05:00.305Z,7.35
2022-11-14T16:07:02.198Z,7.34
2022-11-14T16:09:04.013Z,7.33
2022-11-14T16:11:05.570Z,7.32
2022-11-14T16:13:07.038Z,7.31
2022-11-14T16:15:08.899Z,7.30
2022-11-14T16:17:15.274Z,7.30
2022-11-14T16:19:17.156Z,7.26
2022-11-14T16:21:18.663Z,7.25
2022-11-14T16:23:20.080Z,7.22
2022-11-14T16:25:26.941Z,7.19
2022-11-14T16:27:28.413Z,7.19
2022-11-14T16:29:29.869Z,7.17
2022-11-14T16:31:31.328Z,7.17
2022-11-14T16:33:33.227Z,7.17
2022-11-14T16:35:34.904Z,7.16
2022-11-14T16:37:36.449Z,7.15
2022-11-14T16:39:38.576Z,7.13
2022-11-14T16:41:40.841Z,7.11
2022-11-14T16:43:42.280Z,7.08
2022-11-14T16:45:43.716Z,7.05
2022-11-14T16:47:45.137Z,7.03
2022-11-14T16:49:46.578Z,7.01
2022-11-14T16:51:52.122Z,6.99
2022-11-14T16:53:56.854Z,6.96
2022-11-14T16:55:58.351Z,6.95
2022-11-14T16:58:00.088Z,6.94
2022-11-14T17:00:03.873Z,6.93
2022-11-14T17:02:05.552Z,6.92
2022-11-14T17:04:07.210Z,6.91
2022-11-14T17:06:10.380Z,6.89
2022-11-14T17:08:11.891Z,6.88
2022-11-14T17:10:13.325Z,6.86
2022-11-14T17:12:14.799Z,6.83
2022-11-14T17:14:16.281Z,6.81
2022-11-14T17:16:18.302Z,6.79
2022-11-14T17:18:19.771Z,6.76
2022-11-14T17:20:21.195Z,6.75
2022-11-14T17:22:22.774Z,6.74
2022-11-14T17:24:28.622Z,6.72
2022-11-14T17:26:32.691Z,6.70
2022-11-14T17:28:34.553Z,6.69
2022-11-14T17:30:41.156Z,6.68
2022-11-14T17:32:42.902Z,6.67
2022-11-14T17:34:44.425Z,6.65
2022-11-14T17:36:45.946Z,6.63
2022-11-14T17:38:47.489Z,6.61
2022-11-14T17:40:48.935Z,6.59
2022-11-14T17:42:52.265Z,6.59
2022-11-14T17:44:53.672Z,6.57
2022-11-14T17:46:55.091Z,6.56
2022-11-14T17:48:58.602Z,6.56
2022-11-14T17:51:10.291Z,6.55
2022-11-14T17:53:11.741Z,6.51
2022-11-14T17:55:13.403Z,6.51
2022-11-14T17:57:14.907Z,6.51
2022-11-14T17:59:16.364Z,6.49
2022-11-14T18:01:20.566Z,6.47
2022-11-14T18:03:22.033Z,6.46
2022-11-14T18:05:23.812Z,6.45
2022-11-14T18:07:25.576Z,6.44
2022-11-14T18:09:29.409Z,6.43
2022-11-14T18:11:31.361Z,6.40
2022-11-14T18:13:33.336Z,6.38
2022-11-14T18:15:36.916Z,6.37
2022-11-14T18:17:38.332Z,6.35
2022-11-14T18:19:39.861Z,6.36
2022-11-14T18:21:43.203Z,6.35
2022-11-14T18:23:57.295Z,6.34
2022-11-14T18:25:58.756Z,6.30
2022-11-14T18:28:00.173Z,6.28
2022-11-14T18:30:19.833Z,6.28
2022-11-14T18:32:23.021Z,6.26
2022-11-14T18:34:24.453Z,6.25
2022-11-14T18:36:25.883Z,6.24
2022-11-14T18:38:30.866Z,6.23
2022-11-14T18:40:32.522Z,6.21
2022-11-14T18:42:33.965Z,6.19
2022-11-14T18:44:35.502Z,6.17
2022-11-14T18:46:37.730Z,6.17
2022-11-14T18:48:40.628Z,6.15
2022-11-14T18:50:42.072Z,6.12
2022-11-14T18:52:43.463Z,6.11
2022-11-14T18:54:44.873Z,6.10
2022-11-14T18:56:46.465Z,6.09
2022-11-14T18:58:52.836Z,6.09
2022-11-14T19:00:54.348Z,6.08
2022-11-14T19:02:55.812Z,6.08
2022-11-14T19:04:57.239Z,6.08
2022-11-14T19:06:58.811Z,6.09
2022-11-14T19:09:08.131Z,6.09
2022-11-14T19:11:33.487Z,6.09
2022-11-14T19:13:35.259Z,6.07
2022-11-14T19:15:36.778Z,6.06
2022-11-14T19:17:38.243Z,6.06
2022-11-14T19:19:39.756Z,6.04
2022-11-14T19:21:41.517Z,6.03
2022-11-14T19:23:42.977Z,6.03
2022-11-14T19:25:44.481Z,6.03
2022-11-14T19:27:50.532Z,6.03
2022-11-14T19:29:51.969Z,6.02
2022-11-14T19:31:54.585Z,6.01
2022-11-14T19:33:56.067Z,6.01
2022-11-14T19:35:58.033Z,6.03
2022-11-14T19:37:59.572Z,6.06
2022-11-14T19:40:01.080Z,6.07
2022-11-14T19:42:02.547Z,6.09
2022-11-14T19:44:04.254Z,6.11
2022-11-14T19:46:07.272Z,6.12
2022-11-14T19:48:08.775Z,6.16
2022-11-14T19:50:11.005Z,6.15
2022-11-14T19:52:13.980Z,6.17
2022-11-14T19:54:15.697Z,6.17
2022-11-14T19:56:18.191Z,6.20
2022-11-14T19:58:19.705Z,6.20
2022-11-14T20:00:24.829Z,6.20
2022-11-14T20:02:28.476Z,6.19
2022-11-14T20:04:32.301Z,6.18
2022-11-14T20:06:37.036Z,6.18
2022-11-14T20:08:38.520Z,6.16
2022-11-14T20:10:47.629Z,6.16
2022-11-14T20:12:49.452Z,6.13
2022-11-14T20:14:51.202Z,6.13
2022-11-14T20:16:52.650Z,6.13
2022-11-14T20:18:59.005Z,6.13
2022-11-14T20:21:05.281Z,6.10
2022-11-14T20:23:06.763Z,6.10
2022-11-14T20:25:08.791Z,6.09
2022-11-14T20:27:10.357Z,6.07
2022-11-14T20:29:11.867Z,6.06
2022-11-14T20:31:15.834Z,6.06
2022-11-14T20:33:18.045Z,6.05
2022-11-14T20:35:19.524Z,6.05
2022-11-14T20:37:21.040Z,6.04
2022-11-14T20:39:22.736Z,6.03
2022-11-14T20:41:25.098Z,6.01
2022-11-14T20:43:28.312Z,5.99
2022-11-14T20:45:30.042Z,5.99
2022-11-14T20:47:31.583Z,5.99
2022-11-14T20:49:33.084Z,5.98
2022-11-14T20:51:36.574Z,5.97
2022-11-14T20:53:38.782Z,5.97
2022-11-14T20:55:41.408Z,5.99
2022-11-14T20:57:42.900Z,6.01
2022-11-14T20:59:44.494Z,6.04
2022-11-14T21:01:46.018Z,6.06
2022-11-14T21:03:48.551Z,6.08
2022-11-14T21:05:50.032Z,6.10
2022-11-14T21:07:51.549Z,6.13
2022-11-14T21:10:13.228Z,6.14
2022-11-14T21:12:14.926Z,6.17
2022-11-14T21:14:16.365Z,6.20
2022-11-14T21:16:21.867Z,6.23
2022-11-14T21:18:23.658Z,6.24
2022-11-14T21:20:25.424Z,6.27
2022-11-14T21:22:26.833Z,6.28
2022-11-14T21:24:28.588Z,6.29
2022-11-14T21:26:36.239Z,6.34
2022-11-14T21:28:41.048Z,6.35
2022-11-14T21:30:42.484Z,6.37
2022-11-14T21:32:43.963Z,6.40
2022-11-14T21:34:45.394Z,6.40
2022-11-14T21:36:48.220Z,6.43
2022-11-14T21:38:49.739Z,6.43
2022-11-14T21:40:55.215Z,6.44
2022-11-14T21:42:56.633Z,6.44
2022-11-14T21:44:58.111Z,6.44
2022-11-14T21:46:59.738Z,6.47
2022-11-14T21:49:01.170Z,6.47
2022-11-14T21:51:14.671Z,6.48
2022-11-14T21:53:16.485Z,6.49
2022-11-14T21:55:17.965Z,6.49
2022-11-14T21:57:19.387Z,6.49
2022-11-14T21:59:25.641Z,6.52
2022-11-14T22:01:45.445Z,6.52
2022-11-14T22:04:05.336Z,6.53
2022-11-14T22:06:06.806Z,6.55
2022-11-14T22:08:08.218Z,6.57
2022-11-14T22:10:09.856Z,6.59
2022-11-14T22:12:11.343Z,6.60
2022-11-14T22:14:12.827Z,6.60
2022-11-14T22:16:17.704Z,6.62
2022-11-14T22:18:19.121Z,6.64
2022-11-14T22:20:20.551Z,6.66
2022-11-14T22:22:21.963Z,6.67
2022-11-14T22:24:23.739Z,6.69
2022-11-14T22:26:25.263Z,6.70
2022-11-14T22:28:28.426Z,6.71
2022-11-14T22:30:29.936Z,6.74
2022-11-14T22:32:32.140Z,6.75
2022-11-14T22:34:33.550Z,6.76
2022-11-14T22:36:35.517Z,6.78
2022-11-14T22:38:37.967Z,6.81
2022-11-14T22:40:39.514Z,6.83
2022-11-14T22:42:40.969Z,6.84
2022-11-14T22:44:42.386Z,6.86
2022-11-14T22:46:43.807Z,6.87
2022-11-14T22:48:46.482Z,6.89
2022-11-14T22:50:48.189Z,6.90
2022-11-14T22:52:49.609Z,6.91
2022-11-14T22:54:51.008Z,6.91
2022-11-14T22:56:52.448Z,6.93
2022-11-14T22:58:54.816Z,6.94
2022-11-14T23:00:56.243Z,6.96
2022-11-14T23:03:20.388Z,6.96
2022-11-14T23:05:22.169Z,6.97
2022-11-14T23:07:23.644Z,6.97
2022-11-14T23:09:25.153Z,6.98
2022-11-14T23:11:29.071Z,6.99
2022-11-14T23:13:31.137Z,6.98
2022-11-14T23:15:32.970Z,6.98
2022-11-14T23:17:34.388Z,6.98
2022-11-14T23:19:35.827Z,6.95
2022-11-14T23:21:37.288Z,6.93
2022-11-14T23:23:38.774Z,6.93
2022-11-14T23:25:40.221Z,6.94
2022-11-14T23:27:41.647Z,6.94
2022-11-14T23:29:43.093Z,6.96
2022-11-14T23:31:44.515Z,6.93
2022-11-14T23:33:51.345Z,6.93
2022-11-14T23:35:52.809Z,6.94
2022-11-14T23:37:54.219Z,6.95
2022-11-14T23:39:55.634Z,6.94
2022-11-14T23:41:57.076Z,6.93
2022-11-14T23:43:58.557Z,6.94
2022-11-14T23:45:59.982Z,6.92
2022-11-14T23:48:01.469Z,6.94
2022-11-14T23:50:02.991Z,6.94
2022-11-14T23:52:04.600Z,6.92
2022-11-14T23:54:06.058Z,6.93
2022-11-14T23:56:11.788Z,6.91
2022-11-14T23:58:13.213Z,6.92
